createdAt,value
2022-08-10T00:00:52.278Z,25.23
2022-08-10T00:03:20.118Z,25.26
2022-08-10T00:05:52.774Z,25.26
2022-08-10T00:08:23.809Z,25.25
2022-08-10T00:10:51.947Z,25.26
2022-08-10T00:13:19.955Z,25.26
2022-08-10T00:15:53.669Z,25.25
2022-08-10T00:18:34.996Z,25.26
2022-08-10T00:21:03.935Z,25.24
2022-08-10T00:23:31.627Z,25.25
2022-08-10T00:25:59.418Z,25.24
2022-08-10T00:28:27.213Z,25.24
2022-08-10T00:30:54.946Z,25.23
2022-08-10T00:33:22.781Z,25.24
2022-08-10T00:35:50.521Z,25.25
2022-08-10T00:38:18.425Z,25.26
2022-08-10T00:40:47.045Z,25.25
2022-08-10T00:43:14.790Z,25.24
2022-08-10T00:45:59.514Z,25.23
2022-08-10T00:48:28.222Z,25.22
2022-08-10T00:50:56.093Z,25.22
2022-08-10T00:53:23.888Z,25.23
2022-08-10T00:57:17.037Z,25.24
2022-08-10T00:58:41.719Z,25.23
2022-08-10T01:01:23.533Z,25.22
2022-08-10T01:04:40.159Z,25.21
2022-08-10T01:06:45.108Z,25.20
2022-08-10T01:09:12.980Z,25.20
2022-08-10T01:12:27.757Z,25.21
2022-08-10T01:14:28.609Z,25.21
2022-08-10T01:16:56.342Z,25.21
2022-08-10T01:19:24.105Z,25.21
2022-08-10T01:21:55.229Z,25.22
2022-08-10T01:24:25.362Z,25.20
2022-08-10T01:26:53.166Z,25.20
2022-08-10T01:29:21.002Z,25.19
2022-08-10T01:31:48.692Z,25.20
2022-08-10T01:34:16.501Z,25.21
2022-08-10T01:36:45.937Z,25.21
2022-08-10T01:39:13.921Z,25.20
2022-08-10T01:41:46.381Z,25.20
2022-08-10T01:44:14.765Z,25.20
2022-08-10T01:46:42.606Z,25.20
2022-08-10T01:49:09.280Z,25.20
2022-08-10T01:51:37.135Z,25.19
2022-08-10T01:54:09.354Z,25.18
2022-08-10T01:56:40.658Z,25.19
2022-08-10T01:59:08.452Z,25.19
2022-08-10T02:01:36.307Z,25.18
2022-08-10T02:04:06.135Z,25.16
2022-08-10T02:06:34.046Z,25.17
2022-08-10T02:09:06.417Z,25.16
2022-08-10T02:11:57.539Z,25.17
2022-08-10T02:14:22.650Z,25.15
2022-08-10T02:16:50.590Z,25.16
2022-08-10T02:19:18.466Z,25.16
2022-08-10T02:22:37.527Z,25.15
2022-08-10T02:24:33.872Z,25.14
2022-08-10T02:27:01.566Z,25.13
2022-08-10T02:29:31.356Z,25.13
2022-08-10T02:31:59.052Z,25.13
2022-08-10T02:34:27.638Z,25.13
2022-08-10T02:36:56.058Z,25.13
2022-08-10T02:39:24.099Z,25.14
2022-08-10T02:45:13.074Z,25.13
2022-08-10T02:45:18.780Z,25.11
2022-08-10T02:47:27.832Z,25.09
2022-08-10T02:49:55.533Z,25.09
2022-08-10T02:52:23.235Z,25.10
2022-08-10T02:54:51.122Z,25.11
2022-08-10T02:57:19.443Z,25.12
2022-08-10T02:59:47.320Z,25.11
2022-08-10T03:02:15.030Z,25.11
2022-08-10T03:04:55.275Z,25.11
2022-08-10T03:07:42.793Z,25.10
2022-08-10T03:10:14.465Z,25.09
2022-08-10T03:12:42.573Z,25.08
2022-08-10T03:15:10.318Z,25.08
2022-08-10T03:17:43.781Z,25.08
2022-08-10T03:20:37.956Z,25.09
2022-08-10T03:23:07.012Z,25.09
2022-08-10T03:25:34.786Z,25.09
2022-08-10T03:28:02.693Z,25.10
2022-08-10T03:30:33.406Z,25.09
2022-08-10T03:33:01.964Z,25.07
2022-08-10T03:35:29.775Z,25.09
2022-08-10T03:38:00.069Z,25.09
2022-08-10T03:40:44.975Z,25.09
2022-08-10T03:43:13.660Z,25.07
2022-08-10T03:45:55.152Z,25.08
2022-08-10T03:48:23.960Z,25.08
2022-08-10T03:50:52.704Z,25.07
2022-08-10T03:53:24.878Z,25.08
2022-08-10T03:56:28.982Z,25.06
2022-08-10T03:58:56.246Z,25.07
2022-08-10T04:02:45.459Z,25.10
2022-08-10T04:04:13.807Z,25.07
2022-08-10T04:06:44.492Z,25.07
2022-08-10T04:09:12.258Z,25.09
2022-08-10T04:11:40.820Z,25.11
2022-08-10T04:14:35.582Z,25.10
2022-08-10T04:16:56.265Z,25.08
2022-08-10T04:19:24.190Z,25.08
2022-08-10T04:21:51.977Z,25.10
2022-08-10T04:24:24.851Z,25.08
2022-08-10T04:26:57.608Z,25.08
2022-08-10T04:29:25.335Z,25.08
2022-08-10T04:31:53.238Z,25.08
2022-08-10T04:34:21.549Z,25.10
2022-08-10T04:36:49.301Z,25.11
2022-08-10T04:39:17.057Z,25.14
2022-08-10T04:41:47.475Z,25.14
2022-08-10T04:44:15.405Z,25.14
2022-08-10T04:46:55.866Z,25.12
2022-08-10T04:49:55.277Z,25.11
2022-08-10T04:52:14.518Z,25.11
2022-08-10T04:54:42.219Z,25.11
2022-08-10T04:57:09.970Z,25.13
2022-08-10T04:59:37.667Z,25.13
2022-08-10T05:02:28.965Z,25.13
2022-08-10T05:04:53.018Z,25.14
2022-08-10T05:07:20.752Z,25.15
2022-08-10T05:10:01.176Z,25.15
2022-08-10T05:12:34.483Z,25.16
2022-08-10T05:15:04.423Z,25.14
2022-08-10T05:17:32.176Z,25.15
2022-08-10T05:20:02.100Z,25.16
2022-08-10T05:22:33.076Z,25.17
2022-08-10T05:25:00.881Z,25.20
2022-08-10T05:27:28.628Z,25.20
2022-08-10T05:30:01.714Z,25.21
2022-08-10T05:32:30.722Z,25.21
2022-08-10T05:34:58.722Z,25.22
2022-08-10T05:38:09.694Z,25.23
2022-08-10T05:40:14.119Z,25.21
2022-08-10T05:42:46.915Z,25.20
2022-08-10T05:45:14.675Z,25.19
2022-08-10T05:48:53.801Z,25.19
2022-08-10T05:50:32.198Z,25.19
2022-08-10T05:53:03.739Z,25.22
2022-08-10T05:55:47.742Z,25.20
2022-08-10T05:58:16.784Z,25.20
2022-08-10T06:00:49.722Z,25.21
2022-08-10T06:03:18.343Z,25.20
2022-08-10T06:05:51.961Z,25.20
2022-08-10T06:08:19.685Z,25.21
2022-08-10T06:12:25.527Z,25.23
2022-08-10T06:14:13.388Z,25.21
2022-08-10T06:16:40.764Z,25.22
2022-08-10T06:19:08.497Z,25.23
2022-08-10T06:21:36.160Z,25.24
2022-08-10T06:24:03.841Z,25.24
2022-08-10T06:26:31.497Z,25.26
2022-08-10T06:29:02.679Z,25.27
2022-08-10T06:31:47.834Z,25.26
2022-08-10T06:34:17.231Z,25.29
2022-08-10T06:36:44.909Z,25.30
2022-08-10T06:39:32.997Z,25.30
2022-08-10T06:42:15.756Z,25.29
2022-08-10T06:44:45.199Z,25.29
2022-08-10T06:47:12.963Z,25.32
2022-08-10T06:49:40.681Z,25.32
2022-08-10T06:52:08.418Z,25.31
2022-08-10T06:54:40.817Z,25.32
2022-08-10T06:57:17.902Z,25.31
2022-08-10T06:59:46.071Z,25.35
2022-08-10T07:02:16.619Z,25.35
2022-08-10T07:04:44.360Z,25.36
2022-08-10T07:07:12.090Z,25.38
2022-08-10T07:09:39.766Z,25.42
2022-08-10T07:12:09.105Z,25.41
2022-08-10T07:14:37.194Z,25.44
2022-08-10T07:17:04.939Z,25.46
2022-08-10T07:19:32.723Z,25.46
2022-08-10T07:22:00.383Z,25.45
2022-08-10T07:24:28.109Z,25.45
2022-08-10T07:26:55.773Z,25.44
2022-08-10T07:29:53.290Z,25.43
2022-08-10T07:32:15.758Z,25.41
2022-08-10T07:34:43.633Z,25.44
2022-08-10T07:37:11.322Z,25.44
2022-08-10T07:39:58.253Z,25.45
2022-08-10T07:42:26.861Z,25.43
2022-08-10T07:44:54.662Z,25.45
2022-08-10T07:47:52.990Z,25.44
2022-08-10T07:50:10.023Z,25.44
2022-08-10T07:52:38.150Z,25.46
2022-08-10T07:55:05.867Z,25.45
2022-08-10T07:57:38.171Z,25.46
2022-08-10T08:00:08.032Z,25.47
2022-08-10T08:02:36.039Z,25.46
2022-08-10T08:05:03.850Z,25.48
2022-08-10T08:07:31.516Z,25.47
2022-08-10T08:10:00.777Z,25.48
2022-08-10T08:12:30.624Z,25.48
2022-08-10T08:15:02.556Z,25.50
2022-08-10T08:17:52.541Z,25.51
2022-08-10T08:20:28.855Z,25.52
2022-08-10T08:24:05.430Z,25.53
2022-08-10T08:25:44.364Z,25.52
2022-08-10T08:28:12.192Z,25.53
2022-08-10T08:30:40.067Z,25.54
2022-08-10T08:33:07.887Z,25.54
2022-08-10T08:35:35.613Z,25.54
2022-08-10T08:38:31.569Z,25.56
2022-08-10T08:40:50.910Z,25.54
2022-08-10T08:43:18.813Z,25.56
2022-08-10T08:46:01.901Z,25.54
2022-08-10T08:48:29.963Z,25.54
2022-08-10T08:50:57.920Z,25.54
2022-08-10T08:54:01.629Z,25.57
2022-08-10T08:56:13.353Z,25.54
2022-08-10T08:58:41.095Z,25.57
2022-08-10T09:01:11.215Z,25.55
2022-08-10T09:03:39.454Z,25.54
2022-08-10T09:06:07.199Z,25.57
2022-08-10T09:08:34.863Z,25.58
2022-08-10T09:11:02.591Z,25.58
2022-08-10T09:13:30.715Z,25.58
2022-08-10T09:16:00.798Z,25.60
2022-08-10T09:18:28.624Z,25.60
2022-08-10T09:20:56.329Z,25.59
2022-08-10T09:24:01.985Z,25.59
2022-08-10T09:26:13.259Z,25.58
2022-08-10T09:28:40.942Z,25.58
2022-08-10T09:31:21.868Z,25.59
2022-08-10T09:36:22.960Z,25.57
2022-08-10T09:36:39.135Z,25.58
2022-08-10T09:39:07.248Z,25.58
2022-08-10T09:41:34.995Z,25.58
2022-08-10T09:44:02.870Z,25.58
2022-08-10T09:46:30.784Z,25.58
2022-08-10T09:48:58.702Z,25.58
2022-08-10T09:51:44.777Z,25.58
2022-08-10T09:54:13.876Z,25.59
2022-08-10T09:56:41.632Z,25.60
2022-08-10T09:59:29.291Z,25.59
2022-08-10T10:02:03.721Z,25.56
2022-08-10T10:04:32.018Z,25.56
2022-08-10T10:07:00.269Z,25.57
2022-08-10T10:09:30.134Z,25.57
2022-08-10T10:11:57.903Z,25.57
2022-08-10T10:14:35.897Z,25.57
2022-08-10T10:17:03.631Z,25.57
2022-08-10T10:19:31.764Z,25.56
2022-08-10T10:21:59.458Z,25.57
2022-08-10T10:24:27.192Z,25.58
2022-08-10T10:26:55.021Z,25.57
2022-08-10T10:29:58.671Z,25.58
2022-08-10T10:32:10.553Z,25.56
2022-08-10T10:34:38.310Z,25.58
2022-08-10T10:37:06.589Z,25.56
2022-08-10T10:39:34.323Z,25.57
2022-08-10T10:42:04.556Z,25.56
2022-08-10T10:44:32.720Z,25.54
2022-08-10T10:47:00.418Z,25.54
2022-08-10T10:49:28.928Z,25.55
2022-08-10T10:52:00.113Z,25.55
2022-08-10T10:54:29.963Z,25.55
2022-08-10T10:56:57.626Z,25.56
2022-08-10T10:59:56.181Z,25.58
2022-08-10T11:02:13.064Z,25.60
2022-08-10T11:04:40.776Z,25.61
2022-08-10T11:07:10.414Z,25.63
2022-08-10T11:10:05.973Z,25.60
2022-08-10T11:12:27.537Z,25.59
2022-08-10T11:14:55.369Z,25.58
2022-08-10T11:17:23.036Z,25.61
2022-08-10T11:20:03.031Z,25.61
2022-08-10T11:22:31.412Z,25.60
2022-08-10T11:25:04.707Z,25.60
2022-08-10T11:27:32.413Z,25.59
2022-08-10T11:30:00.182Z,25.58
2022-08-10T11:32:27.852Z,25.57
2022-08-10T11:35:10.628Z,25.58
2022-08-10T11:38:28.447Z,25.57
2022-08-10T11:40:27.748Z,25.54
2022-08-10T11:42:55.489Z,25.57
2022-08-10T11:45:23.503Z,25.59
2022-08-10T11:47:51.285Z,25.59
2022-08-10T11:50:19.013Z,25.60
2022-08-10T11:52:46.771Z,25.58
2022-08-10T11:55:14.888Z,25.58
2022-08-10T11:57:53.843Z,25.60
2022-08-10T12:00:21.678Z,25.60
2022-08-10T12:02:49.542Z,25.61
2022-08-10T12:05:18.136Z,25.62
2022-08-10T12:10:07.220Z,25.62
2022-08-10T12:10:37.449Z,25.61
2022-08-10T12:13:08.056Z,25.60
2022-08-10T12:15:36.831Z,25.59
2022-08-10T12:18:04.648Z,25.60
2022-08-10T12:20:32.561Z,25.61
2022-08-10T12:23:00.324Z,25.61
2022-08-10T12:25:57.182Z,25.60
2022-08-10T12:28:15.910Z,25.58
2022-08-10T12:30:44.076Z,25.61
2022-08-10T12:33:11.802Z,25.60
2022-08-10T12:35:41.968Z,25.59
2022-08-10T12:38:15.328Z,25.60
2022-08-10T12:40:43.054Z,25.60
2022-08-10T12:43:13.378Z,25.61
2022-08-10T12:46:01.824Z,25.60
2022-08-10T12:48:32.255Z,25.62
2022-08-10T12:50:59.976Z,25.63
2022-08-10T12:53:27.710Z,25.63
2022-08-10T12:55:55.443Z,25.62
2022-08-10T12:58:59.044Z,25.60
2022-08-10T13:01:16.452Z,25.60
2022-08-10T13:04:20.799Z,25.61
2022-08-10T13:06:32.742Z,25.59
2022-08-10T13:09:09.752Z,25.58
2022-08-10T13:12:35.690Z,25.57
2022-08-10T13:14:25.126Z,25.56
2022-08-10T13:16:52.820Z,25.58
2022-08-10T13:19:21.530Z,25.59
2022-08-10T13:21:49.195Z,25.61
2022-08-10T13:24:16.966Z,25.61
2022-08-10T13:27:24.848Z,25.62
2022-08-10T13:29:36.154Z,25.61
2022-08-10T13:32:10.618Z,25.59
2022-08-10T13:34:42.464Z,25.60
2022-08-10T13:37:12.493Z,25.60
2022-08-10T13:39:59.424Z,25.60
2022-08-10T13:42:31.677Z,25.59
2022-08-10T13:45:00.366Z,25.58
2022-08-10T13:47:28.380Z,25.59
2022-08-10T13:49:56.041Z,25.59
2022-08-10T13:52:23.833Z,25.58
2022-08-10T13:54:51.852Z,25.58
2022-08-10T13:57:19.549Z,25.58
2022-08-10T14:00:36.352Z,25.58
2022-08-10T14:02:35.773Z,25.57
2022-08-10T14:05:03.638Z,25.58
2022-08-10T14:07:31.319Z,25.56
2022-08-10T14:09:59.402Z,25.56
2022-08-10T14:12:31.953Z,25.57
2022-08-10T14:15:01.311Z,25.57
2022-08-10T14:17:29.021Z,25.57
2022-08-10T14:19:58.717Z,25.59
2022-08-10T14:22:34.028Z,25.59
2022-08-10T14:25:02.306Z,25.59
2022-08-10T14:28:02.116Z,25.60
2022-08-10T14:30:17.884Z,25.60
2022-08-10T14:32:45.629Z,25.60
2022-08-10T14:36:21.548Z,25.60
2022-08-10T14:38:02.812Z,25.59
2022-08-10T14:40:31.406Z,25.60
2022-08-10T14:42:59.125Z,25.61
2022-08-10T14:45:26.999Z,25.61
2022-08-10T14:47:59.298Z,25.61
2022-08-10T14:50:32.771Z,25.60
2022-08-10T14:53:01.203Z,25.62
2022-08-10T14:55:28.966Z,25.62
2022-08-10T14:58:16.907Z,25.62
2022-08-10T15:00:46.093Z,25.64
2022-08-10T15:03:59.610Z,25.64
2022-08-10T15:06:02.435Z,25.62
2022-08-10T15:08:36.889Z,25.63
2022-08-10T15:11:04.989Z,25.63
2022-08-10T15:13:34.593Z,25.62
2022-08-10T15:16:12.527Z,25.62
2022-08-10T15:18:41.987Z,25.62
2022-08-10T15:21:35.633Z,25.62
2022-08-10T15:24:10.908Z,25.61
2022-08-10T15:26:38.686Z,25.62
2022-08-10T15:29:24.402Z,25.63
2022-08-10T15:32:11.433Z,25.63
2022-08-10T15:34:56.705Z,25.63
2022-08-10T15:37:47.165Z,25.64
2022-08-10T15:40:25.053Z,25.63
2022-08-10T15:42:58.418Z,25.63
2022-08-10T15:45:26.291Z,25.65
2022-08-10T15:48:02.930Z,25.65
2022-08-10T15:50:31.637Z,25.65
2022-08-10T15:53:01.801Z,25.65
2022-08-10T15:55:43.710Z,25.65
2022-08-10T15:58:13.426Z,25.64
2022-08-10T16:00:41.249Z,25.65
2022-08-10T16:03:12.988Z,25.65
2022-08-10T16:06:02.027Z,25.63
2022-08-10T16:08:29.009Z,25.61
2022-08-10T16:10:56.729Z,25.61
2022-08-10T16:13:51.058Z,25.62
2022-08-10T16:16:12.579Z,25.61
2022-08-10T16:18:40.343Z,25.62
2022-08-10T16:21:08.274Z,25.61
2022-08-10T16:23:35.968Z,25.61
2022-08-10T16:26:14.742Z,25.62
2022-08-10T16:28:43.717Z,25.60
2022-08-10T16:31:11.442Z,25.61
2022-08-10T16:33:52.796Z,25.61
2022-08-10T16:36:22.544Z,25.61
2022-08-10T16:38:50.277Z,25.59
2022-08-10T16:42:00.780Z,25.61
2022-08-10T16:44:06.459Z,25.59
2022-08-10T16:46:49.570Z,25.60
2022-08-10T16:49:17.455Z,25.59
2022-08-10T16:51:45.237Z,25.59
2022-08-10T16:54:13.003Z,25.58
2022-08-10T16:56:48.857Z,25.60
2022-08-10T16:59:17.762Z,25.59
2022-08-10T17:01:51.505Z,25.61
2022-08-10T17:04:22.042Z,25.61
2022-08-10T17:06:55.241Z,25.59
2022-08-10T17:09:23.762Z,25.60
2022-08-10T17:11:51.530Z,25.59
2022-08-10T17:14:19.267Z,25.59
2022-08-10T17:16:47.000Z,25.58
2022-08-10T17:19:14.872Z,25.60
2022-08-10T17:21:51.817Z,25.61
2022-08-10T17:24:20.003Z,25.60
2022-08-10T17:26:47.716Z,25.60
2022-08-10T17:29:50.599Z,25.60
2022-08-10T17:32:03.994Z,25.59
2022-08-10T17:34:31.779Z,25.60
2022-08-10T17:36:59.530Z,25.60
2022-08-10T17:39:27.466Z,25.60
2022-08-10T17:41:55.218Z,25.59
2022-08-10T17:44:22.933Z,25.60
2022-08-10T17:46:50.640Z,25.58
2022-08-10T17:49:18.557Z,25.59
2022-08-10T17:51:46.286Z,25.60
2022-08-10T17:54:13.968Z,25.59
2022-08-10T17:56:41.722Z,25.58
2022-08-10T17:59:17.182Z,25.57
2022-08-10T18:01:58.939Z,25.57
2022-08-10T18:04:35.648Z,25.56
2022-08-10T18:07:09.340Z,25.56
2022-08-10T18:09:37.079Z,25.57
2022-08-10T18:12:10.297Z,25.57
2022-08-10T18:14:46.006Z,25.55
2022-08-10T18:17:13.816Z,25.55
2022-08-10T18:19:41.715Z,25.56
2022-08-10T18:22:09.524Z,25.56
2022-08-10T18:24:37.240Z,25.56
2022-08-10T18:27:07.112Z,25.56
2022-08-10T18:29:34.973Z,25.58
2022-08-10T18:32:03.020Z,25.56
2022-08-10T18:34:30.778Z,25.53
2022-08-10T18:36:58.542Z,25.52
2022-08-10T18:39:26.499Z,25.50
2022-08-10T18:42:00.561Z,25.50
2022-08-10T18:44:33.043Z,25.49
2022-08-10T18:47:00.917Z,25.49
2022-08-10T18:49:28.649Z,25.48
2022-08-10T18:51:57.072Z,25.47
2022-08-10T18:54:31.699Z,25.47
2022-08-10T18:57:11.900Z,25.47
2022-08-10T18:59:40.328Z,25.49
2022-08-10T19:02:28.649Z,25.46
2022-08-10T19:04:56.626Z,25.47
2022-08-10T19:07:24.484Z,25.48
2022-08-10T19:09:52.240Z,25.49
2022-08-10T19:15:01.994Z,25.46
2022-08-10T19:18:01.248Z,25.50
2022-08-10T19:20:22.054Z,25.47
2022-08-10T19:22:49.799Z,25.48
2022-08-10T19:25:17.545Z,25.48
2022-08-10T19:28:06.381Z,25.47
2022-08-10T19:30:34.304Z,25.48
2022-08-10T19:33:02.026Z,25.49
2022-08-10T19:35:29.790Z,25.49
2022-08-10T19:38:00.762Z,25.53
2022-08-10T19:40:43.915Z,25.53
2022-08-10T19:43:12.688Z,25.50
2022-08-10T19:46:01.420Z,25.49
2022-08-10T19:48:30.844Z,25.49
2022-08-10T19:50:58.543Z,25.49
2022-08-10T19:53:26.283Z,25.50
2022-08-10T19:55:54.073Z,25.50
2022-08-10T19:58:22.150Z,25.49
2022-08-10T20:00:50.416Z,25.49
2022-08-10T20:03:18.338Z,25.51
2022-08-10T20:06:19.567Z,25.49
2022-08-10T20:08:34.115Z,25.49
2022-08-10T20:11:01.829Z,25.49
2022-08-10T20:13:29.558Z,25.46
2022-08-10T20:15:57.273Z,25.47
2022-08-10T20:18:25.281Z,25.48
2022-08-10T20:20:53.268Z,25.48
2022-08-10T20:23:21.113Z,25.48
2022-08-10T20:25:48.873Z,25.47
2022-08-10T20:28:16.718Z,25.48
2022-08-10T20:30:44.457Z,25.48
2022-08-10T20:33:12.343Z,25.47
2022-08-10T20:35:40.328Z,25.47
2022-08-10T20:38:08.249Z,25.46
2022-08-10T20:40:36.323Z,25.47
2022-08-10T20:43:04.087Z,25.46
2022-08-10T20:45:51.821Z,25.45
2022-08-10T20:48:21.265Z,25.43
2022-08-10T20:50:49.039Z,25.46
2022-08-10T20:53:16.769Z,25.45
2022-08-10T20:55:46.992Z,25.47
2022-08-10T20:58:24.052Z,25.46
2022-08-10T21:00:52.553Z,25.46
2022-08-10T21:03:22.181Z,25.44
2022-08-10T21:05:53.660Z,25.44
2022-08-10T21:08:22.577Z,25.44
2022-08-10T21:10:50.507Z,25.44
2022-08-10T21:13:18.216Z,25.44
2022-08-10T21:15:45.928Z,25.45
2022-08-10T21:18:14.135Z,25.45
2022-08-10T21:20:54.359Z,25.43
2022-08-10T21:23:22.754Z,25.43
2022-08-10T21:25:59.078Z,25.43
2022-08-10T21:28:29.070Z,25.43
2022-08-10T21:30:55.959Z,25.43
2022-08-10T21:33:22.541Z,25.45
2022-08-10T21:35:49.132Z,25.44
2022-08-10T21:38:15.672Z,25.43
2022-08-10T21:41:18.082Z,25.44
2022-08-10T21:43:51.648Z,25.43
2022-08-10T21:46:37.006Z,25.40
2022-08-10T21:49:23.034Z,25.39
2022-08-10T21:52:08.774Z,25.40
2022-08-10T21:54:54.200Z,25.39
2022-08-10T21:57:43.385Z,25.40
2022-08-10T22:00:29.531Z,25.40
2022-08-10T22:03:14.872Z,25.40
2022-08-10T22:06:03.212Z,25.38
2022-08-10T22:08:48.502Z,25.38
2022-08-10T22:11:37.371Z,25.39
2022-08-10T22:14:22.877Z,25.38
2022-08-10T22:17:59.987Z,25.39
2022-08-10T22:20:16.293Z,25.38
2022-08-10T22:23:19.317Z,25.37
2022-08-10T22:26:12.180Z,25.37
2022-08-10T22:28:57.574Z,25.38
2022-08-10T22:31:43.340Z,25.37
2022-08-10T22:34:28.770Z,25.37
2022-08-10T22:37:13.907Z,25.37
2022-08-10T22:40:11.756Z,25.37
2022-08-10T22:43:11.145Z,25.37
2022-08-10T22:45:57.408Z,25.35
2022-08-10T22:48:43.091Z,25.35
2022-08-10T22:51:15.677Z,25.36
2022-08-10T22:54:01.200Z,25.37
2022-08-10T22:56:46.283Z,25.37
2022-08-10T22:59:14.036Z,25.36
2022-08-10T23:02:07.876Z,25.37
2022-08-10T23:04:35.648Z,25.36
2022-08-10T23:07:03.968Z,25.34
2022-08-10T23:09:34.880Z,25.36
2022-08-10T23:12:02.719Z,25.37
2022-08-10T23:14:35.824Z,25.36
2022-08-10T23:17:21.174Z,25.37
2022-08-10T23:19:51.339Z,25.36
2022-08-10T23:22:19.006Z,25.36
2022-08-10T23:24:46.861Z,25.36
2022-08-10T23:27:38.781Z,25.38
2022-08-10T23:30:10.881Z,25.35
2022-08-10T23:32:44.658Z,25.35
2022-08-10T23:36:31.773Z,25.35
2022-08-10T23:37:59.987Z,25.34
2022-08-10T23:40:27.693Z,25.36
2022-08-10T23:42:55.406Z,25.35
2022-08-10T23:45:23.120Z,25.35
2022-08-10T23:47:51.016Z,25.36
2022-08-10T23:50:18.765Z,25.36
2022-08-10T23:52:46.649Z,25.35
2022-08-10T23:55:14.344Z,25.36
2022-08-10T23:57:42.114Z,25.35
